Flight Track Log - Related Links

Times and Time Zones

All times are in EDT time to prevent confusion due to time zone crossing. See the VH-TUY flight status page for this flight to view local times or setup timezone preferences in your user account.

Time Position Orientation Groundspeed Altitude Reporting Facility
EDT Latitude Longitude Course Direction KTS MPH feet Rate Location/Type
Sat 11:35:42 AM -17.2982 123.8991 360° North  Level Aus ATC (Calculated)
Sat 11:36:42 AM -17.2982 123.8991 72° East  Level Aus ATC (Calculated)
Sat 11:38:00 AM -17.2831 123.9492 72° East  Level FlightAware Approximate
Sat 11:39:00 AM -17.2714 123.9876 72° East  Level FlightAware Approximate
Sat 11:39:42 AM -17.2524 124.0505 180° South  Level Aus ATC (Calculated)
Sat 11:39:42 AM -17.2524 124.0505 252° West  Level Aus ATC (Calculated)
Sat 11:40:00 AM -17.2598 124.0261 72° East  Level FlightAware Approximate
Sat 11:41:00 AM -17.2372 124.1005 72° East  Level FlightAware Approximate
Sat 11:42:00 AM -17.2256 124.1390 72° East  Level FlightAware Approximate
Sat 11:43:00 AM -17.2139 124.1775 72° East  Level FlightAware Approximate
Sat 11:44:00 AM -17.2022 124.2159 72° East  Level FlightAware Approximate
Sat 11:45:00 AM -17.1905 124.2544 72° East  Level FlightAware Approximate
Sat 11:46:00 AM -17.1788 124.2928 72° East  Level FlightAware Approximate
Sat 11:47:00 AM -17.1671 124.3313 72° East  Level FlightAware Approximate
Sat 11:47:16 AM -17.1633 124.3436 360° North  Level Aus ATC (Calculated)
Sat 11:47:16 AM -17.1633 124.3436 72° East  Level Aus ATC (Calculated)
Sat 11:49:00 AM -17.1418 124.4140 72° East  Level FlightAware Approximate
Sat 11:50:00 AM -17.1295 124.4545 72° East  Level FlightAware Approximate
Sat 11:50:39 AM -17.1214 124.4809 72° East  Level Aus ATC (Calculated)
Sat 11:51:00 AM -17.1171 124.4951 72° East  Level FlightAware Approximate
Sat 11:52:00 AM -17.1047 124.5357 72° East  Level FlightAware Approximate
Sat 11:53:00 AM -17.0923 124.5762 72° East  Level FlightAware Approximate
Sat 11:54:00 AM -17.0798 124.6168 72° East  Level FlightAware Approximate
Sat 11:55:00 AM -17.0674 124.6574 72° East  Level FlightAware Approximate
Sat 11:56:00 AM -17.0550 124.6979 72° East  Level FlightAware Approximate
Sat 11:57:00 AM -17.0425 124.7385 72° East  Level FlightAware Approximate
Sat 11:58:00 AM -17.0301 124.7790 72° East  Level FlightAware Approximate
Sat 11:59:00 AM -17.0176 124.8195 72° East  Level FlightAware Approximate
Sat 12:00:00 PM -17.0051 124.8601 72° East  Level FlightAware Approximate
Sat 12:01:00 PM -16.9926 124.9006 72° East  Level FlightAware Approximate
Sat 12:02:00 PM -16.9802 124.9411 72° East  Level FlightAware Approximate
Sat 12:03:00 PM -16.9677 124.9816 72° East  Level FlightAware Approximate
Sat 12:04:00 PM -16.9552 125.0221 72° East  Level FlightAware Approximate
Sat 12:05:00 PM -16.9427 125.0626 72° East  Level FlightAware Approximate
Sat 12:06:00 PM -16.9301 125.1031 72° East  Level FlightAware Approximate
Sat 12:07:00 PM -16.9176 125.1436 72° East  Level FlightAware Approximate
Sat 12:08:00 PM -16.9051 125.1841 72° East  Level FlightAware Approximate
Sat 12:09:00 PM -16.8925 125.2246 72° East  Level FlightAware Approximate
Sat 12:10:00 PM -16.8800 125.2651 72° East  Level FlightAware Approximate
Sat 12:11:00 PM -16.8674 125.3055 72° East  Level FlightAware Approximate
Sat 12:12:00 PM -16.8549 125.3460 72° East  Level FlightAware Approximate
Sat 12:13:00 PM -16.8423 125.3865 72° East  Level FlightAware Approximate
Sat 12:14:00 PM -16.8297 125.4269 72° East  Level FlightAware Approximate
Sat 12:14:43 PM -16.7936 125.5430 252° West  Level Aus ATC (Calculated)
Sat 12:15:00 PM -16.8171 125.4674 72° East  Level FlightAware Approximate
Sat 12:16:00 PM -16.7774 125.5948 72° East  Level FlightAware Approximate
Sat 12:17:00 PM -16.7648 125.6353 72° East  Level FlightAware Approximate
Sat 12:18:00 PM -16.7521 125.6757 72° East  Level FlightAware Approximate
Sat 12:19:00 PM -16.7395 125.7161 72° East  Level FlightAware Approximate
Sat 12:20:00 PM -16.7269 125.7565 72° East  Level FlightAware Approximate
Sat 12:21:00 PM -16.7142 125.7969 72° East  Level FlightAware Approximate
Sat 12:22:00 PM -16.7015 125.8373 72° East  Level FlightAware Approximate
Sat 12:23:00 PM -16.6889 125.8777 72° East  Level FlightAware Approximate
Sat 12:24:00 PM -16.6762 125.9181 72° East  Level FlightAware Approximate
Sat 12:25:00 PM -16.6635 125.9585 72° East  Level FlightAware Approximate
Sat 12:26:00 PM -16.6508 125.9989 72° East  Level FlightAware Approximate
Sat 12:27:00 PM -16.6381 126.0393 72° East  Level FlightAware Approximate
Sat 12:28:00 PM -16.6254 126.0796 72° East  Level FlightAware Approximate
Sat 12:29:00 PM -16.6127 126.1200 72° East  Level FlightAware Approximate
Sat 12:30:00 PM -16.6000 126.1603 72° East  Level FlightAware Approximate
Sat 12:31:00 PM -16.5872 126.2007 72° East  Level FlightAware Approximate
Sat 12:31:58 PM -16.5598 126.2876 252° West  Level Aus ATC (Calculated)
Sat 12:32:00 PM -16.5745 126.2410 72° East  Level FlightAware Approximate
Sat 12:33:00 PM -16.5466 126.3292 72° East  Level FlightAware Approximate
Sat 12:34:00 PM -16.5339 126.3696 72° East  Level FlightAware Approximate
Sat 12:35:00 PM -16.5211 126.4099 72° East  Level FlightAware Approximate
Sat 12:35:39 PM -16.5117 126.4394 90° East  Level Aus ATC (Calculated)
Sat 12:35:58 PM -16.5117 126.4394 72° East  Level Aus ATC (Calculated)
Sat 12:37:00 PM -16.4985 126.4811 72° East  Level FlightAware Approximate
Sat 12:38:00 PM -16.4858 126.5214 72° East  Level FlightAware Approximate
Sat 12:39:00 PM -16.4729 126.5617 72° East  Level FlightAware Approximate
Sat 12:39:55 PM -16.4666 126.5816 72° East  Level Aus ATC (Calculated)
Sat 12:40:00 PM -16.4601 126.6020 72° East  Level FlightAware Approximate
Sat 12:41:00 PM -16.4518 126.6282 72° East  Level FlightAware Approximate
Sat 12:42:00 PM -16.4381 126.6713 72° East  Level FlightAware Approximate
Sat 12:42:00 PM -16.4454 126.6483 85° East  Level Aus ATC (Calculated)
Sat 12:42:00 PM -16.4454 126.6483 72° East  Level Aus ATC (Calculated)
Sat 12:43:00 PM -16.4244 126.7143 72° East  Level FlightAware Approximate
Sat 12:44:00 PM -16.4180 126.7343 72° East  Level FlightAware Approximate
Sat 12:45:00 PM -16.4043 126.7774 72° East  Level FlightAware Approximate
Sat 12:46:00 PM -16.3905 126.8204 72° East  Level FlightAware Approximate
Sat 12:47:00 PM -16.3768 126.8634 72° East  Level FlightAware Approximate
Sat 12:48:00 PM -16.3631 126.9065 72° East  Level FlightAware Approximate
Sat 12:49:00 PM -16.3493 126.9495 72° East  Level FlightAware Approximate
Sat 12:50:00 PM -16.3355 126.9925 72° East  Level FlightAware Approximate
Sat 12:50:16 PM -16.3218 127.0354 72° East  Level Aus ATC (Calculated)
Sat 12:52:00 PM -16.2979 127.1099 72° East  Level FlightAware Approximate
Sat 12:53:00 PM -16.2841 127.1529 72° East  Level FlightAware Approximate
Sat 12:54:00 PM -16.2703 127.1959 72° East  Level FlightAware Approximate
Sat 12:55:00 PM -16.2565 127.2388 71° East  Level FlightAware Approximate
Sat 12:56:00 PM -16.2427 127.2818 71° East  Level FlightAware Approximate
Sat 12:57:00 PM -16.2288 127.3248 71° East  Level FlightAware Approximate
Sat 12:58:00 PM -16.2150 127.3677 71° East  Level FlightAware Approximate
Sat 12:59:00 PM -16.2011 127.4106 71° East  Level FlightAware Approximate
Sat 01:00:00 PM -16.1873 127.4536 71° East  Level FlightAware Approximate
Sat 01:01:00 PM -16.1734 127.4965 71° East  Level FlightAware Approximate
Sat 01:01:11 PM -16.1702 127.5066 71° East  Level Aus ATC (Calculated)
Sat 01:03:00 PM -16.1450 127.5846 71° East  Level FlightAware Approximate
Sat 01:04:00 PM -16.1311 127.6275 71° East  Level FlightAware Approximate
Sat 01:05:00 PM -16.1172 127.6704 71° East  Level FlightAware Approximate
Sat 01:06:00 PM -16.1033 127.7133 71° East  Level FlightAware Approximate
Sat 01:07:00 PM -16.0893 127.7562 71° East  Level FlightAware Approximate
Sat 01:08:00 PM -16.0754 127.7991 71° East  Level FlightAware Approximate
Sat 01:09:00 PM -16.0615 127.8419 71° East  Level FlightAware Approximate
Sat 01:10:00 PM -16.0475 127.8848 71° East  Level FlightAware Approximate
Sat 01:11:00 PM -16.0336 127.9277 71° East  Level FlightAware Approximate
Sat 01:12:00 PM -16.0196 127.9705 71° East  Level FlightAware Approximate
Sat 01:13:00 PM -16.0057 128.0134 71° East  Level FlightAware Approximate
Sat 01:14:00 PM -15.9917 128.0562 71° East  Level FlightAware Approximate
Sat 01:15:00 PM -15.9777 128.0991 71° East  Level FlightAware Approximate
Sat 01:16:00 PM -15.9637 128.1419 71° East  Level FlightAware Approximate
Sat 01:17:00 PM -15.9497 128.1848 71° East  Level FlightAware Approximate
Sat 01:18:00 PM -15.9357 128.2276 71° East  Level FlightAware Approximate
Sat 01:19:00 PM -15.9217 128.2704 71° East  Level FlightAware Approximate
Sat 01:20:00 PM -15.9076 128.3132 71° East  Level FlightAware Approximate
Sat 01:21:00 PM -15.8936 128.3560 71° East  Level FlightAware Approximate
Sat 01:22:00 PM -15.8796 128.3988 71° East  Level FlightAware Approximate
Sat 01:23:00 PM -15.8655 128.4416 71° East  Level FlightAware Approximate
Sat 01:24:00 PM -15.8514 128.4844 71° East  Level FlightAware Approximate
Sat 01:25:00 PM -15.8374 128.5272 71° East  Level FlightAware Approximate
Sat 01:26:00 PM -15.8233 128.5700 71° East  Level FlightAware Approximate
Sat 01:27:00 PM -15.8092 128.6128 73° East  Level Estimated
Sat 01:27:00 PM -15.8027 128.6325 71° East  Level Aus ATC (Calculated)
Sat 01:28:00 PM -15.7886 128.6753 73° East  Level Estimated
Sat 01:29:00 PM -15.7780 128.7074 73° East  Level FlightAware Approximate
Sat 01:30:00 PM -15.7781 128.7075 73° East  Level Estimated
Sat 01:31:00 PM -15.7781 128.7075 73° East  Level Estimated
Sat 01:32:00 PM -15.7781 128.7075 73° East  Level Estimated
Sat 01:33:00 PM -15.7781 128.7075 73° East  Level Estimated
Sat 01:34:00 PM -15.7781 128.7075 73° East  Level Estimated
Sat 01:35:00 PM -15.7781 128.7075 73° East  Level Estimated

Login

Don't have an account? Register now (free) for customized features, flight alerts, and more!